createdAt,value
2022-12-18T00:01:28.965Z,116.03
2022-12-18T00:03:56.798Z,115.97
2022-12-18T00:06:25.729Z,112.97
2022-12-18T00:08:53.204Z,116.83
2022-12-18T00:11:21.817Z,108.97
2022-12-18T00:13:49.074Z,106.53
2022-12-18T00:16:19.128Z,111.23
2022-12-18T00:18:45.636Z,113.25
2022-12-18T00:21:13.715Z,98.20
2022-12-18T00:23:42.290Z,109.30
2022-12-18T00:26:15.291Z,110.27
2022-12-18T00:28:42.575Z,114.13
2022-12-18T00:31:12.948Z,118.27
2022-12-18T00:33:40.101Z,116.28
2022-12-18T00:36:10.022Z,112.70
2022-12-18T00:38:37.586Z,119.57
2022-12-18T00:41:05.138Z,121.50
2022-12-18T00:43:31.559Z,112.90
2022-12-18T00:45:57.975Z,108.00
2022-12-18T00:48:24.564Z,105.87
2022-12-18T00:50:52.061Z,117.67
2022-12-18T00:53:18.935Z,111.93
2022-12-18T00:55:47.861Z,112.80
2022-12-18T00:58:16.489Z,114.50
2022-12-18T01:00:43.496Z,99.63
2022-12-18T01:03:13.561Z,112.83
2022-12-18T01:05:42.028Z,114.07
2022-12-18T01:08:08.616Z,111.83
2022-12-18T01:10:35.045Z,104.10
2022-12-18T01:13:01.553Z,115.37
2022-12-18T01:15:28.171Z,102.23
2022-12-18T01:17:54.800Z,107.47
2022-12-18T01:20:21.608Z,104.30
2022-12-18T01:22:47.973Z,103.13
2022-12-18T01:25:14.399Z,111.43
2022-12-18T01:27:40.771Z,102.90
2022-12-18T01:30:08.021Z,99.87
2022-12-18T01:32:34.472Z,101.83
2022-12-18T01:35:01.059Z,106.37
2022-12-18T01:37:27.927Z,100.20
2022-12-18T01:39:54.456Z,107.27
2022-12-18T01:42:21.400Z,99.07
2022-12-18T01:44:50.831Z,102.13
2022-12-18T01:47:39.712Z,108.27
2022-12-18T01:50:16.120Z,111.87
2022-12-18T01:53:01.094Z,102.17
2022-12-18T01:55:31.699Z,106.13
2022-12-18T02:00:27.219Z,101.97
2022-12-18T02:02:54.404Z,98.43
2022-12-18T02:05:35.043Z,104.73
2022-12-18T02:08:10.437Z,100.57
2022-12-18T02:10:42.729Z,103.00
2022-12-18T02:14:02.327Z,99.13
2022-12-18T02:16:52.536Z,101.50
2022-12-18T02:19:48.179Z,93.53
2022-12-18T02:22:30.633Z,99.40
2022-12-18T02:25:34.715Z,96.73
2022-12-18T02:28:05.176Z,103.50
2022-12-18T02:30:34.391Z,93.32
2022-12-18T02:33:04.897Z,101.37
2022-12-18T02:35:33.648Z,98.60
2022-12-18T02:38:01.207Z,90.30
2022-12-18T02:40:29.374Z,94.37
2022-12-18T02:42:56.287Z,99.67
2022-12-18T02:45:22.676Z,102.33
2022-12-18T02:47:50.865Z,87.83
2022-12-18T02:50:39.018Z,97.70
2022-12-18T02:53:22.482Z,90.67
2022-12-18T02:55:59.572Z,92.80
2022-12-18T02:58:44.471Z,80.67
2022-12-18T03:01:22.738Z,88.73
2022-12-18T03:03:56.551Z,85.50
2022-12-18T03:06:29.943Z,85.83
2022-12-18T03:09:08.649Z,89.47
2022-12-18T03:11:41.095Z,86.67
2022-12-18T03:14:08.682Z,84.03
2022-12-18T03:16:37.367Z,79.77
2022-12-18T03:19:17.058Z,81.63
2022-12-18T03:21:50.472Z,96.17
2022-12-18T03:24:19.535Z,84.33
2022-12-18T03:26:48.016Z,100.23
2022-12-18T03:29:19.849Z,96.20
2022-12-18T03:31:54.223Z,90.50
2022-12-18T03:34:25.249Z,98.93
2022-12-18T03:36:51.821Z,85.60
2022-12-18T03:39:18.263Z,89.13
2022-12-18T03:41:53.697Z,93.70
2022-12-18T03:44:35.847Z,90.87
2022-12-18T03:47:08.361Z,92.93
2022-12-18T03:50:13.162Z,87.67
2022-12-18T03:52:49.615Z,93.17
2022-12-18T03:55:17.947Z,88.97
2022-12-18T03:57:46.603Z,92.27
2022-12-18T04:00:15.532Z,92.47
2022-12-18T04:02:47.067Z,106.87
2022-12-18T04:05:14.747Z,87.43
2022-12-18T04:07:42.514Z,103.33
2022-12-18T04:10:11.121Z,108.60
2022-12-18T04:12:38.781Z,104.30
2022-12-18T04:15:06.723Z,97.90
2022-12-18T04:17:33.365Z,100.50
2022-12-18T04:19:59.873Z,96.70
2022-12-18T04:22:26.326Z,92.27
2022-12-18T04:24:52.841Z,94.33
2022-12-18T04:27:19.253Z,93.77
2022-12-18T04:29:45.857Z,100.50
2022-12-18T04:32:12.220Z,85.27
2022-12-18T04:34:38.715Z,101.40
2022-12-18T04:37:05.323Z,89.53
2022-12-18T04:39:31.779Z,87.37
2022-12-18T04:41:58.412Z,97.83
2022-12-18T04:44:24.847Z,89.07
2022-12-18T04:46:51.249Z,91.73
2022-12-18T04:49:17.620Z,83.10
2022-12-18T04:51:43.985Z,83.03
2022-12-18T04:54:10.309Z,75.07
2022-12-18T04:56:36.695Z,85.17
2022-12-18T04:59:03.319Z,77.40
2022-12-18T05:01:34.585Z,74.57
2022-12-18T05:04:02.530Z,83.17
2022-12-18T05:06:29.018Z,75.00
2022-12-18T05:08:55.810Z,69.60
2022-12-18T05:11:22.808Z,90.10
2022-12-18T05:13:49.368Z,78.97
2022-12-18T05:16:16.071Z,88.50
2022-12-18T05:18:43.011Z,91.17
2022-12-18T05:21:10.103Z,88.83
2022-12-18T05:23:37.603Z,86.00
2022-12-18T05:26:07.148Z,76.37
2022-12-18T05:28:35.551Z,88.37
2022-12-18T05:31:03.430Z,87.80
2022-12-18T05:33:33.094Z,90.20
2022-12-18T05:36:01.862Z,84.20
2022-12-18T05:38:29.772Z,90.77
2022-12-18T05:40:57.517Z,89.60
2022-12-18T05:43:25.329Z,93.07
2022-12-18T05:45:52.121Z,91.07
2022-12-18T05:48:19.142Z,89.80
2022-12-18T05:50:47.094Z,97.73
2022-12-18T05:53:15.673Z,97.30
2022-12-18T05:55:43.249Z,89.77
2022-12-18T05:58:11.551Z,101.90
2022-12-18T06:00:40.837Z,94.40
2022-12-18T06:03:08.699Z,96.53
2022-12-18T06:05:40.320Z,88.03
2022-12-18T06:08:06.948Z,98.40
2022-12-18T06:10:33.732Z,97.83
2022-12-18T06:13:00.680Z,88.20
2022-12-18T06:15:27.095Z,92.37
2022-12-18T06:17:53.488Z,100.73
2022-12-18T06:20:20.651Z,94.47
2022-12-18T06:22:46.991Z,102.77
2022-12-18T06:25:13.344Z,93.67
2022-12-18T06:27:40.078Z,91.07
2022-12-18T06:30:09.064Z,92.67
2022-12-18T06:32:35.898Z,104.73
2022-12-18T06:35:02.262Z,89.73
2022-12-18T06:37:28.733Z,88.00
2022-12-18T06:39:55.147Z,94.17
2022-12-18T06:42:23.848Z,90.63
2022-12-18T06:44:50.240Z,92.73
2022-12-18T06:47:16.631Z,88.07
2022-12-18T06:49:44.138Z,95.37
2022-12-18T06:52:10.543Z,94.60
2022-12-18T06:54:37.198Z,94.40
2022-12-18T06:57:03.564Z,83.70
2022-12-18T06:59:29.906Z,89.93
2022-12-18T07:01:56.354Z,84.07
2022-12-18T07:04:22.830Z,90.27
2022-12-18T07:06:49.213Z,89.27
2022-12-18T07:09:15.747Z,85.53
2022-12-18T07:11:42.110Z,80.20
2022-12-18T07:14:08.760Z,86.37
2022-12-18T07:16:35.177Z,76.90
2022-12-18T07:19:01.647Z,84.13
2022-12-18T07:21:28.131Z,92.63
2022-12-18T07:23:54.638Z,86.90
2022-12-18T07:26:22.359Z,82.70
2022-12-18T07:28:49.872Z,89.90
2022-12-18T07:31:20.296Z,80.70
2022-12-18T07:33:48.629Z,95.17
2022-12-18T07:36:15.876Z,83.93
2022-12-18T07:38:42.503Z,87.53
2022-12-18T07:41:12.534Z,83.13
2022-12-18T07:43:40.165Z,93.72
2022-12-18T07:46:09.648Z,80.50
2022-12-18T07:48:36.297Z,81.60
2022-12-18T07:51:04.601Z,90.33
2022-12-18T07:53:31.140Z,83.63
2022-12-18T07:56:26.579Z,83.50
2022-12-18T07:58:50.209Z,76.33
2022-12-18T08:01:17.235Z,75.63
2022-12-18T08:03:44.980Z,82.40
2022-12-18T08:06:11.518Z,73.57
2022-12-18T08:08:38.054Z,69.90
2022-12-18T08:11:04.561Z,67.00
2022-12-18T08:13:31.225Z,69.23
2022-12-18T08:15:59.169Z,63.73
2022-12-18T08:18:25.988Z,70.30
2022-12-18T08:20:52.946Z,67.73
2022-12-18T08:23:19.672Z,65.60
2022-12-18T08:25:46.126Z,62.07
2022-12-18T08:28:12.640Z,74.93
2022-12-18T08:30:39.169Z,78.90
2022-12-18T08:33:06.034Z,68.90
2022-12-18T08:35:41.089Z,64.00
2022-12-18T08:38:10.605Z,71.23
2022-12-18T08:40:37.006Z,69.40
2022-12-18T08:43:03.482Z,75.87
2022-12-18T08:45:30.130Z,59.83
2022-12-18T08:47:56.594Z,68.77
2022-12-18T08:50:22.958Z,69.63
2022-12-18T08:52:49.948Z,62.23
2022-12-18T08:55:16.412Z,63.13
2022-12-18T08:57:42.812Z,62.10
2022-12-18T09:00:09.857Z,68.50
2022-12-18T09:02:36.285Z,64.10
2022-12-18T09:05:02.963Z,75.33
2022-12-18T09:07:32.036Z,69.47
2022-12-18T09:09:58.451Z,64.23
2022-12-18T09:12:25.034Z,65.03
2022-12-18T09:14:51.802Z,72.33
2022-12-18T09:17:18.363Z,73.30
2022-12-18T09:19:44.982Z,67.97
2022-12-18T09:22:11.468Z,72.67
2022-12-18T09:24:37.879Z,60.97
2022-12-18T09:27:05.373Z,64.40
2022-12-18T09:29:33.131Z,67.37
2022-12-18T09:31:59.599Z,66.30
2022-12-18T09:34:26.002Z,69.47
2022-12-18T09:36:52.573Z,72.70
2022-12-18T09:39:20.119Z,65.87
2022-12-18T09:41:56.833Z,63.10
2022-12-18T09:44:31.836Z,66.73
2022-12-18T09:47:04.484Z,66.80
2022-12-18T09:49:34.858Z,68.10
2022-12-18T09:52:20.348Z,70.38
2022-12-18T09:55:35.137Z,72.10
2022-12-18T09:58:41.415Z,72.33
2022-12-18T10:01:23.090Z,70.47
2022-12-18T10:03:50.485Z,68.00
2022-12-18T10:06:29.526Z,68.33
2022-12-18T10:09:28.398Z,67.07
2022-12-18T10:12:03.601Z,68.77
2022-12-18T10:15:03.296Z,65.77
2022-12-18T10:18:18.793Z,70.40
2022-12-18T10:20:55.708Z,74.73
2022-12-18T10:23:46.425Z,66.23
2022-12-18T10:26:14.534Z,62.67
2022-12-18T10:28:43.200Z,76.13
2022-12-18T10:31:22.139Z,72.20
2022-12-18T10:33:51.414Z,74.17
2022-12-18T10:36:17.824Z,63.13
2022-12-18T10:38:44.617Z,73.60
2022-12-18T10:41:21.759Z,72.30
2022-12-18T10:43:49.017Z,65.57
2022-12-18T10:46:21.921Z,63.70
2022-12-18T10:48:53.980Z,78.10
2022-12-18T10:51:31.492Z,74.33
2022-12-18T10:54:06.612Z,70.23
2022-12-18T10:56:37.154Z,76.80
2022-12-18T10:59:09.196Z,75.32
2022-12-18T11:01:49.321Z,71.20
2022-12-18T11:04:21.961Z,71.72
2022-12-18T11:07:05.369Z,72.80
2022-12-18T11:09:36.659Z,72.97
2022-12-18T11:12:06.851Z,68.70
2022-12-18T11:14:46.910Z,62.28
2022-12-18T11:17:32.103Z,69.13
2022-12-18T11:20:22.568Z,77.50
2022-12-18T11:23:04.034Z,78.53
2022-12-18T11:25:33.022Z,73.83
2022-12-18T11:28:23.719Z,73.23
2022-12-18T11:30:50.073Z,76.25
2022-12-18T11:33:23.303Z,72.57
2022-12-18T11:36:03.918Z,76.57
2022-12-18T11:38:39.973Z,70.82
2022-12-18T11:41:24.681Z,74.70
2022-12-18T11:43:59.745Z,78.83
2022-12-18T11:46:37.092Z,70.80
2022-12-18T11:49:19.879Z,72.63
2022-12-18T11:52:19.413Z,71.90
2022-12-18T11:54:45.845Z,73.03
2022-12-18T11:57:34.450Z,75.70
2022-12-18T12:00:04.525Z,78.30
2022-12-18T12:03:25.031Z,74.97
2022-12-18T12:05:54.240Z,74.45
2022-12-18T12:08:59.226Z,74.23
2022-12-18T12:11:54.633Z,77.93
2022-12-18T12:14:44.195Z,75.97
2022-12-18T12:17:19.237Z,80.20
2022-12-18T12:20:07.284Z,77.70
2022-12-18T12:23:02.323Z,76.83
2022-12-18T12:25:44.107Z,77.67
2022-12-18T12:28:29.188Z,72.23
2022-12-18T12:31:21.866Z,74.23
2022-12-18T12:33:57.888Z,74.40
2022-12-18T12:37:00.535Z,67.93
2022-12-18T12:39:37.451Z,70.13
2022-12-18T12:42:27.643Z,69.43
2022-12-18T12:44:59.608Z,70.10
2022-12-18T12:47:32.188Z,76.23
2022-12-18T12:50:01.340Z,71.73
2022-12-18T12:52:42.766Z,70.10
2022-12-18T12:55:18.603Z,62.90
2022-12-18T12:58:06.859Z,88.63
2022-12-18T13:00:46.146Z,61.37
2022-12-18T13:03:41.993Z,48.80
2022-12-18T13:06:30.756Z,59.33
2022-12-18T13:09:00.202Z,64.83
2022-12-18T13:11:38.191Z,47.93
2022-12-18T13:14:04.625Z,47.17
2022-12-18T13:16:31.176Z,68.20
2022-12-18T13:18:59.115Z,65.53
2022-12-18T13:21:30.082Z,57.37
2022-12-18T13:23:57.966Z,57.50
2022-12-18T13:26:29.009Z,54.20
2022-12-18T13:28:57.623Z,48.63
2022-12-18T13:32:03.092Z,48.83
2022-12-18T13:34:31.708Z,50.03
2022-12-18T13:37:33.781Z,49.40
2022-12-18T13:40:02.426Z,52.37
2022-12-18T13:42:39.075Z,44.83
2022-12-18T13:45:46.088Z,50.80
2022-12-18T13:48:25.310Z,49.87
2022-12-18T13:51:18.467Z,53.47
2022-12-18T13:53:52.868Z,53.77
2022-12-18T13:56:23.978Z,48.23
2022-12-18T13:59:07.315Z,50.30
2022-12-18T14:01:34.959Z,46.67
2022-12-18T14:04:24.996Z,44.60
2022-12-18T14:06:55.737Z,47.43
2022-12-18T14:09:31.936Z,51.47
2022-12-18T14:11:59.340Z,49.07
2022-12-18T14:14:32.364Z,53.10
2022-12-18T14:17:00.249Z,47.37
2022-12-18T14:19:28.610Z,56.00
2022-12-18T14:21:55.137Z,56.20
2022-12-18T14:24:22.655Z,58.90
2022-12-18T14:26:51.424Z,56.13
2022-12-18T14:29:28.317Z,55.50
2022-12-18T14:32:17.443Z,53.27
2022-12-18T14:34:55.264Z,56.63
2022-12-18T14:37:24.279Z,60.00
2022-12-18T14:40:02.204Z,71.97
2022-12-18T14:42:31.432Z,56.75
2022-12-18T14:45:41.447Z,63.57
2022-12-18T14:48:23.054Z,72.90
2022-12-18T14:51:16.219Z,82.10
2022-12-18T14:53:50.679Z,88.47
2022-12-18T14:56:27.161Z,82.17
2022-12-18T14:58:57.887Z,86.10
2022-12-18T15:01:32.155Z,81.43
2022-12-18T15:04:00.632Z,81.63
2022-12-18T15:06:32.784Z,85.00
2022-12-18T15:09:01.552Z,83.10
2022-12-18T15:11:34.269Z,65.17
2022-12-18T15:14:00.702Z,58.63
2022-12-18T15:16:27.910Z,50.83
2022-12-18T15:18:54.321Z,52.90
2022-12-18T15:21:22.002Z,56.93
2022-12-18T15:23:53.403Z,49.67
2022-12-18T15:26:23.061Z,61.50
2022-12-18T15:28:52.539Z,48.43
2022-12-18T15:31:30.906Z,51.50
2022-12-18T15:34:04.341Z,50.87
2022-12-18T15:36:32.187Z,54.50
2022-12-18T15:39:04.556Z,50.07
2022-12-18T15:41:34.144Z,49.93
2022-12-18T15:44:02.863Z,52.13
2022-12-18T15:46:30.239Z,51.77
2022-12-18T15:49:02.230Z,50.43
2022-12-18T15:51:37.763Z,47.03
2022-12-18T15:54:07.131Z,50.53
2022-12-18T15:56:33.724Z,52.13
2022-12-18T15:59:01.063Z,46.93
2022-12-18T16:01:30.138Z,45.90
2022-12-18T16:03:57.424Z,49.30
2022-12-18T16:06:24.258Z,49.63
2022-12-18T16:08:50.636Z,50.43
2022-12-18T16:11:25.272Z,49.63
2022-12-18T16:13:51.798Z,52.13
2022-12-18T16:16:18.241Z,54.03
2022-12-18T16:18:44.871Z,49.40
2022-12-18T16:21:11.680Z,50.37
2022-12-18T16:23:38.509Z,53.90
2022-12-18T16:26:05.261Z,52.07
2022-12-18T16:28:31.776Z,53.97
2022-12-18T16:30:59.368Z,51.17
2022-12-18T16:33:25.756Z,52.73
2022-12-18T16:35:53.372Z,51.93
2022-12-18T16:38:20.208Z,55.30
2022-12-18T16:40:46.756Z,51.20
2022-12-18T16:43:13.129Z,53.50
2022-12-18T16:45:39.467Z,57.70
2022-12-18T16:48:06.232Z,53.43
2022-12-18T16:50:32.953Z,57.57
2022-12-18T16:52:59.384Z,58.77
2022-12-18T16:55:25.949Z,53.03
2022-12-18T16:57:52.314Z,52.23
2022-12-18T17:00:18.912Z,60.03
2022-12-18T17:02:45.660Z,57.30
2022-12-18T17:05:13.826Z,57.07
2022-12-18T17:07:40.186Z,57.67
2022-12-18T17:10:08.025Z,62.67
2022-12-18T17:12:35.579Z,58.83
2022-12-18T17:15:02.263Z,58.23
2022-12-18T17:17:28.868Z,64.77
2022-12-18T17:19:55.380Z,67.33
2022-12-18T17:22:29.511Z,61.67
2022-12-18T17:24:56.908Z,59.10
2022-12-18T17:27:23.574Z,48.67
2022-12-18T17:29:50.132Z,54.70
2022-12-18T17:32:17.221Z,52.67
2022-12-18T17:34:43.718Z,49.73
2022-12-18T17:37:10.151Z,53.33
2022-12-18T17:39:36.629Z,62.60
2022-12-18T17:42:03.196Z,56.43
2022-12-18T17:44:29.756Z,46.60
2022-12-18T17:46:56.488Z,53.33
2022-12-18T17:49:23.072Z,56.73
2022-12-18T17:51:49.510Z,50.83
2022-12-18T17:54:16.055Z,49.80
2022-12-18T17:56:42.877Z,58.53
2022-12-18T17:59:09.354Z,59.87
2022-12-18T18:01:39.663Z,54.33
2022-12-18T18:04:10.458Z,53.77
2022-12-18T18:06:39.012Z,52.03
2022-12-18T18:09:08.151Z,59.33
2022-12-18T18:11:43.306Z,63.57
2022-12-18T18:14:17.116Z,57.20
2022-12-18T18:16:45.922Z,56.40
2022-12-18T18:19:17.439Z,61.97
2022-12-18T18:21:45.888Z,52.67
2022-12-18T18:24:14.913Z,53.13
2022-12-18T18:26:41.701Z,49.30
2022-12-18T18:29:09.403Z,56.13
2022-12-18T18:31:41.363Z,52.27
2022-12-18T18:34:15.231Z,52.70
2022-12-18T18:36:41.766Z,52.97
2022-12-18T18:39:09.344Z,57.70
2022-12-18T18:41:36.845Z,54.40
2022-12-18T18:44:03.765Z,59.07
2022-12-18T18:46:30.095Z,62.43
2022-12-18T18:48:56.493Z,61.30
2022-12-18T18:51:23.322Z,67.87
2022-12-18T18:53:52.112Z,61.13
2022-12-18T18:59:08.002Z,55.83
2022-12-18T19:01:34.684Z,61.30
2022-12-18T19:04:02.416Z,59.57
2022-12-18T19:06:29.806Z,52.87
2022-12-18T19:08:56.818Z,50.87
2022-12-18T19:11:24.909Z,55.67
2022-12-18T19:13:51.325Z,56.00
2022-12-18T19:16:17.865Z,55.93
2022-12-18T19:18:44.616Z,60.37
2022-12-18T19:21:11.853Z,58.00
2022-12-18T19:23:38.340Z,59.33
2022-12-18T19:28:54.467Z,55.07
2022-12-18T19:31:26.198Z,57.57
2022-12-18T19:33:54.598Z,58.67
2022-12-18T19:36:26.472Z,52.33
2022-12-18T19:38:55.157Z,60.30
2022-12-18T19:41:21.967Z,63.57
2022-12-18T19:43:49.799Z,72.20
2022-12-18T19:46:19.682Z,77.70
2022-12-18T19:48:47.252Z,85.78
2022-12-18T19:51:19.529Z,89.97
2022-12-18T19:53:46.496Z,88.43
2022-12-18T19:56:15.617Z,97.67
2022-12-18T19:58:42.391Z,102.90
2022-12-18T20:01:10.251Z,99.13
2022-12-18T20:03:39.049Z,99.30
2022-12-18T20:06:28.091Z,110.23
2022-12-18T20:09:00.608Z,98.43
2022-12-18T20:11:29.275Z,110.27
2022-12-18T20:13:55.999Z,102.83
2022-12-18T20:16:22.443Z,106.80
2022-12-18T20:18:49.046Z,96.17
2022-12-18T20:21:15.647Z,105.23
2022-12-18T20:23:42.454Z,104.60
2022-12-18T20:26:09.151Z,98.77
2022-12-18T20:28:35.851Z,81.87
2022-12-18T20:31:04.841Z,77.97
2022-12-18T20:33:31.660Z,83.30
2022-12-18T20:36:02.536Z,81.73
2022-12-18T20:38:30.234Z,77.63
2022-12-18T20:40:58.507Z,66.70
2022-12-18T20:43:24.853Z,66.47
2022-12-18T20:45:51.292Z,67.20
2022-12-18T20:48:19.236Z,61.60
2022-12-18T20:50:58.547Z,62.83
2022-12-18T20:53:29.127Z,66.70
2022-12-18T20:55:55.972Z,71.03
2022-12-18T20:58:22.373Z,64.20
2022-12-18T21:00:48.867Z,67.57
2022-12-18T21:03:15.847Z,65.17
2022-12-18T21:05:42.318Z,68.70
2022-12-18T21:08:09.631Z,57.63
2022-12-18T21:10:38.054Z,67.67
2022-12-18T21:13:06.205Z,62.20
2022-12-18T21:15:35.410Z,49.47
2022-12-18T21:18:01.725Z,65.63
2022-12-18T21:20:28.275Z,68.70
2022-12-18T21:22:55.090Z,71.93
2022-12-18T21:25:24.137Z,67.20
2022-12-18T21:27:50.796Z,65.90
2022-12-18T21:30:17.440Z,71.33
2022-12-18T21:32:44.092Z,68.83
2022-12-18T21:35:10.608Z,59.80
2022-12-18T21:37:36.983Z,63.30
2022-12-18T21:40:04.702Z,67.53
2022-12-18T21:42:31.469Z,65.67
2022-12-18T21:44:58.073Z,62.13
2022-12-18T21:47:24.479Z,58.30
2022-12-18T21:49:52.442Z,65.73
2022-12-18T21:52:19.544Z,67.07
2022-12-18T21:54:47.973Z,62.90
2022-12-18T21:57:14.500Z,67.87
2022-12-18T21:59:42.467Z,62.23
2022-12-18T22:02:15.128Z,64.30
2022-12-18T22:04:42.509Z,66.50
2022-12-18T22:07:09.252Z,71.37
2022-12-18T22:09:38.070Z,73.27
2022-12-18T22:12:05.655Z,77.00
2022-12-18T22:14:32.455Z,77.37
2022-12-18T22:16:58.762Z,79.33
2022-12-18T22:19:26.179Z,81.83
2022-12-18T22:21:53.976Z,80.97
2022-12-18T22:24:27.472Z,92.37
2022-12-18T22:26:56.210Z,88.80
2022-12-18T22:29:28.339Z,86.53
2022-12-18T22:31:56.496Z,93.33
2022-12-18T22:34:23.474Z,83.43
2022-12-18T22:36:50.458Z,85.43
2022-12-18T22:39:22.452Z,87.70
2022-12-18T22:41:49.976Z,82.17
2022-12-18T22:44:18.055Z,91.97
2022-12-18T22:47:05.497Z,85.17
2022-12-18T22:49:32.434Z,92.13
2022-12-18T22:52:00.315Z,80.40
2022-12-18T22:54:26.686Z,82.50
2022-12-18T22:56:53.353Z,80.60
2022-12-18T22:59:23.413Z,83.10
2022-12-18T23:01:58.710Z,74.27
2022-12-18T23:04:27.202Z,79.00
2022-12-18T23:06:55.589Z,73.37
2022-12-18T23:09:21.941Z,79.30
2022-12-18T23:11:48.437Z,74.23
2022-12-18T23:14:15.477Z,71.53
2022-12-18T23:16:42.148Z,67.10
2022-12-18T23:19:10.085Z,67.60
2022-12-18T23:21:36.516Z,81.80
2022-12-18T23:24:03.849Z,75.80
2022-12-18T23:26:30.694Z,80.80
2022-12-18T23:28:57.121Z,76.77
2022-12-18T23:31:29.385Z,82.03
2022-12-18T23:33:57.794Z,74.60
2022-12-18T23:36:25.479Z,71.63
2022-12-18T23:38:54.608Z,80.33
2022-12-18T23:41:23.252Z,81.23
2022-12-18T23:43:49.758Z,79.30
2022-12-18T23:46:34.988Z,81.77
2022-12-18T23:49:03.626Z,75.30
2022-12-18T23:51:33.070Z,71.87
2022-12-18T23:54:02.112Z,70.37
2022-12-18T23:56:29.772Z,74.53
2022-12-18T23:58:56.512Z,74.37
